Time;durP1;ratioP1;P1;durP2;ratioP2;P2;SDS_P1;SDS_P2;PMS_P1;PMS_P2;Temp;Humidity;BMP_temperature;BMP_pressure;BME280_temperature;BME280_humidity;BME280_pressure;Samples;Min_cycle;Max_cycle;Signal;HPM_P1;HPM_P2
2022/07/15 00:00:15;;;;;;;;;;;12.90;66.10;;;;;;4178861;28;20382;-84
2022/07/15 00:02:36;;;;;;;;;;;12.80;66.10;;;;;;4182492;28;20408;-84
2022/07/15 00:04:57;;;;;;;;;;;12.90;66.10;;;;;;4181450;28;19908;-85
2022/07/15 00:07:20;;;;;;;;;;;12.80;65.90;;;;;;4190429;28;19991;-83
2022/07/15 00:12:20;;;;;;;;;;;12.80;65.50;;;;;;4184960;28;19905;-85
2022/07/15 00:14:41;;;;;;;;;;;12.80;65.50;;;;;;4185367;28;19923;-85
2022/07/15 00:17:02;;;;;;;;;;;12.80;65.60;;;;;;4181884;28;19912;-85
2022/07/15 00:19:23;;;;;;;;;;;12.70;65.30;;;;;;4187440;28;20326;-85
2022/07/15 00:21:43;;;;;;;;;;;12.70;65.40;;;;;;4174500;28;20024;-85
2022/07/15 00:24:04;;;;;;;;;;;12.70;65.50;;;;;;4180751;28;19916;-84
2022/07/15 00:26:25;;;;;;;;;;;12.70;65.30;;;;;;4171178;28;19909;-85
2022/07/15 00:28:46;;;;;;;;;;;12.60;65.10;;;;;;4185533;28;19936;-85
2022/07/15 00:31:07;;;;;;;;;;;12.60;65.30;;;;;;4193881;28;19915;-85
2022/07/15 00:33:27;;;;;;;;;;;12.60;65.40;;;;;;4192367;28;19935;-84
2022/07/15 00:35:49;;;;;;;;;;;12.60;65.40;;;;;;4187336;28;19935;-83
2022/07/15 00:38:10;;;;;;;;;;;12.60;65.40;;;;;;4190062;28;19909;-85
2022/07/15 00:40:38;;;;;;;;;;;12.60;65.30;;;;;;4186334;28;19916;-84
2022/07/15 00:42:59;;;;;;;;;;;12.50;65.20;;;;;;4174874;28;19982;-84
2022/07/15 00:45:21;;;;;;;;;;;12.50;65.50;;;;;;4190819;28;19969;-85
2022/07/15 00:47:46;;;;;;;;;;;12.50;65.50;;;;;;4188399;28;19905;-85
2022/07/15 00:50:07;;;;;;;;;;;12.50;65.40;;;;;;4189955;28;19931;-84
2022/07/15 00:52:28;;;;;;;;;;;12.50;65.60;;;;;;4178681;28;19909;-84
2022/07/15 00:54:50;;;;;;;;;;;12.50;65.90;;;;;;4190957;28;19920;-84
2022/07/15 00:57:12;;;;;;;;;;;12.50;65.70;;;;;;4190908;28;19954;-85
2022/07/15 00:59:34;;;;;;;;;;;12.40;65.70;;;;;;4175654;28;19943;-84
2022/07/15 01:01:56;;;;;;;;;;;12.50;66.20;;;;;;4189106;28;19908;-84
2022/07/15 01:04:17;;;;;;;;;;;12.40;66.20;;;;;;4188015;28;19955;-83
2022/07/15 01:06:38;;;;;;;;;;;12.50;66.40;;;;;;4189811;28;20396;-84
2022/07/15 01:08:59;;;;;;;;;;;12.40;66.40;;;;;;4192472;28;19904;-84
2022/07/15 01:11:20;;;;;;;;;;;12.40;66.70;;;;;;4189710;28;19912;-84
2022/07/15 01:13:41;;;;;;;;;;;12.40;67.00;;;;;;4172005;28;20027;-85
2022/07/15 01:16:03;;;;;;;;;;;12.50;66.90;;;;;;4186991;28;20117;-84
2022/07/15 01:18:24;;;;;;;;;;;12.40;66.90;;;;;;4180007;28;19999;-84
2022/07/15 01:20:48;;;;;;;;;;;12.50;66.80;;;;;;4176454;28;19912;-85
2022/07/15 01:23:09;;;;;;;;;;;12.50;67.40;;;;;;4186100;28;19915;-84
2022/07/15 01:25:30;;;;;;;;;;;12.50;68.10;;;;;;4187905;28;19908;-84
2022/07/15 01:27:50;;;;;;;;;;;12.50;67.50;;;;;;4193952;28;19977;-84
2022/07/15 01:30:11;;;;;;;;;;;12.50;67.80;;;;;;4173674;28;20310;-84
2022/07/15 01:32:32;;;;;;;;;;;12.50;67.80;;;;;;4181413;28;20512;-83
2022/07/15 01:34:53;;;;;;;;;;;12.50;67.70;;;;;;4171136;28;20365;-83
2022/07/15 01:37:15;;;;;;;;;;;12.50;67.90;;;;;;4188009;28;20331;-83
2022/07/15 01:39:35;;;;;;;;;;;12.60;67.70;;;;;;4179703;28;19995;-84
2022/07/15 01:41:56;;;;;;;;;;;12.60;67.60;;;;;;4189394;28;19959;-84
2022/07/15 01:44:17;;;;;;;;;;;12.60;67.50;;;;;;4185186;28;19916;-84
2022/07/15 01:46:38;;;;;;;;;;;12.60;67.60;;;;;;4177678;28;19909;-85
2022/07/15 01:51:38;;;;;;;;;;;12.60;67.40;;;;;;4185697;28;20307;-84
2022/07/15 01:53:59;;;;;;;;;;;12.60;67.50;;;;;;4189123;28;19954;-85
2022/07/15 01:56:20;;;;;;;;;;;12.60;67.50;;;;;;4185330;28;19963;-85
2022/07/15 01:58:41;;;;;;;;;;;12.60;67.20;;;;;;4184661;28;19919;-84
2022/07/15 02:01:02;;;;;;;;;;;12.60;67.00;;;;;;4190050;28;19905;-85
2022/07/15 02:03:23;;;;;;;;;;;12.60;66.80;;;;;;4178529;28;20550;-84
2022/07/15 02:05:44;;;;;;;;;;;12.60;66.70;;;;;;4188152;28;20332;-84
2022/07/15 02:08:05;;;;;;;;;;;12.60;66.70;;;;;;4187493;28;19912;-84
2022/07/15 02:10:39;;;;;;;;;;;12.60;66.50;;;;;;4184306;28;19909;-84
2022/07/15 02:12:59;;;;;;;;;;;12.60;66.40;;;;;;4191159;28;19908;-84
2022/07/15 02:15:20;;;;;;;;;;;12.50;66.20;;;;;;4186701;28;19956;-85
2022/07/15 02:17:41;;;;;;;;;;;12.50;66.20;;;;;;4184728;28;19912;-84
2022/07/15 02:20:02;;;;;;;;;;;12.50;66.20;;;;;;4188170;28;20184;-84
2022/07/15 02:22:23;;;;;;;;;;;12.50;66.30;;;;;;4191564;28;20519;-85
2022/07/15 02:24:44;;;;;;;;;;;12.40;66.40;;;;;;4183307;28;19911;-85
2022/07/15 02:27:05;;;;;;;;;;;12.40;66.20;;;;;;4169520;28;19913;-85
2022/07/15 02:29:25;;;;;;;;;;;12.40;66.10;;;;;;4174265;28;20379;-84
2022/07/15 02:31:46;;;;;;;;;;;12.40;66.10;;;;;;4174788;28;20367;-84
2022/07/15 02:34:08;;;;;;;;;;;12.40;66.10;;;;;;4193303;28;19930;-84
2022/07/15 02:36:29;;;;;;;;;;;12.30;66.10;;;;;;4184554;28;20003;-84
2022/07/15 02:38:50;;;;;;;;;;;12.30;66.10;;;;;;4196403;28;19909;-86
2022/07/15 02:41:13;;;;;;;;;;;12.30;66.00;;;;;;4174753;28;20279;-84
2022/07/15 02:43:36;;;;;;;;;;;12.30;65.90;;;;;;4189822;28;20339;-84
2022/07/15 02:45:57;;;;;;;;;;;12.30;65.90;;;;;;4179400;28;19913;-84
2022/07/15 02:48:17;;;;;;;;;;;12.20;65.80;;;;;;4172538;28;19945;-85
2022/07/15 02:50:38;;;;;;;;;;;12.20;65.60;;;;;;4168997;28;19909;-85
2022/07/15 02:52:59;;;;;;;;;;;12.20;65.60;;;;;;4195835;28;19908;-85
2022/07/15 02:55:20;;;;;;;;;;;12.10;65.40;;;;;;4187574;28;20272;-85
2022/07/15 02:57:41;;;;;;;;;;;12.10;65.40;;;;;;4191714;28;20293;-83
2022/07/15 03:00:03;;;;;;;;;;;12.10;65.30;;;;;;4190826;28;19943;-85
2022/07/15 03:02:25;;;;;;;;;;;12.10;65.30;;;;;;4167335;28;19908;-85
2022/07/15 03:04:45;;;;;;;;;;;12.00;65.20;;;;;;4190653;28;19911;-84
2022/07/15 03:07:06;;;;;;;;;;;12.00;65.10;;;;;;4174751;28;19917;-85
2022/07/15 03:09:27;;;;;;;;;;;12.00;65.10;;;;;;4193678;28;19908;-83
2022/07/15 03:11:48;;;;;;;;;;;12.00;65.10;;;;;;4176239;28;19916;-84
2022/07/15 03:14:09;;;;;;;;;;;12.00;65.00;;;;;;4192947;28;19912;-84
2022/07/15 03:16:30;;;;;;;;;;;11.90;64.90;;;;;;4192722;28;19904;-84
2022/07/15 03:18:51;;;;;;;;;;;11.90;64.90;;;;;;4173087;28;20263;-83
2022/07/15 03:21:11;;;;;;;;;;;11.90;65.00;;;;;;4176332;28;19979;-85
2022/07/15 03:23:32;;;;;;;;;;;11.90;64.90;;;;;;4172700;28;19908;-84
2022/07/15 03:25:53;;;;;;;;;;;11.90;64.90;;;;;;4191121;28;20367;-83
2022/07/15 03:28:14;;;;;;;;;;;11.80;64.90;;;;;;4192634;28;19939;-84
2022/07/15 03:30:35;;;;;;;;;;;11.80;64.90;;;;;;4178039;28;19912;-84
2022/07/15 03:32:56;;;;;;;;;;;11.80;64.90;;;;;;4172705;28;19913;-84
2022/07/15 03:35:17;;;;;;;;;;;11.80;64.90;;;;;;4174491;28;19978;-85
2022/07/15 03:37:37;;;;;;;;;;;11.80;65.00;;;;;;4174764;28;19904;-85
2022/07/15 03:39:58;;;;;;;;;;;11.80;65.00;;;;;;4193956;28;19916;-84
2022/07/15 03:42:19;;;;;;;;;;;11.80;65.10;;;;;;4178543;28;20422;-85
2022/07/15 03:44:40;;;;;;;;;;;11.80;65.20;;;;;;4188047;28;19916;-85
2022/07/15 03:47:01;;;;;;;;;;;11.80;65.30;;;;;;4189438;28;19908;-85
2022/07/15 03:49:22;;;;;;;;;;;11.80;65.40;;;;;;4175263;28;19913;-84
2022/07/15 03:51:43;;;;;;;;;;;11.80;65.50;;;;;;4181100;28;19950;-85
2022/07/15 03:54:04;;;;;;;;;;;11.80;65.50;;;;;;4195012;28;20516;-83
2022/07/15 03:56:25;;;;;;;;;;;11.90;65.70;;;;;;4188967;28;19912;-84
2022/07/15 03:58:46;;;;;;;;;;;11.90;66.10;;;;;;4194875;28;20311;-84
2022/07/15 04:01:07;;;;;;;;;;;11.90;66.60;;;;;;4178959;28;20410;-84
2022/07/15 04:03:27;;;;;;;;;;;12.00;67.00;;;;;;4197408;28;19904;-85
2022/07/15 04:05:48;;;;;;;;;;;12.10;67.30;;;;;;4182986;28;20444;-85
2022/07/15 04:08:09;;;;;;;;;;;12.10;67.50;;;;;;4183858;28;19967;-86
2022/07/15 04:10:31;;;;;;;;;;;12.20;67.80;;;;;;4196627;28;19911;-84
2022/07/15 04:12:52;;;;;;;;;;;12.30;67.90;;;;;;4192968;28;19908;-84
2022/07/15 04:15:14;;;;;;;;;;;12.30;67.80;;;;;;4190977;28;19919;-85
2022/07/15 04:17:35;;;;;;;;;;;12.40;67.80;;;;;;4189745;28;19919;-85
2022/07/15 04:19:56;;;;;;;;;;;12.50;67.60;;;;;;4174461;28;19916;-84
2022/07/15 04:22:17;;;;;;;;;;;12.50;67.50;;;;;;4186833;28;19912;-85
2022/07/15 04:24:38;;;;;;;;;;;12.60;67.30;;;;;;4184933;28;19912;-85
2022/07/15 04:26:59;;;;;;;;;;;12.70;67.20;;;;;;4193029;28;20404;-84
2022/07/15 04:29:19;;;;;;;;;;;12.80;67.10;;;;;;4185107;28;20308;-85
2022/07/15 04:31:40;;;;;;;;;;;12.80;67.10;;;;;;4179476;28;20386;-86
2022/07/15 04:34:01;;;;;;;;;;;12.90;67.00;;;;;;4167893;28;19912;-84
2022/07/15 04:36:22;;;;;;;;;;;12.90;66.50;;;;;;4179104;28;19909;-84
2022/07/15 04:38:43;;;;;;;;;;;13.00;66.40;;;;;;4187042;28;19904;-84
2022/07/15 04:41:04;;;;;;;;;;;13.10;66.30;;;;;;4192108;28;19908;-84
2022/07/15 04:43:25;;;;;;;;;;;13.20;66.10;;;;;;4174733;28;19967;-85
2022/07/15 04:45:46;;;;;;;;;;;13.20;66.00;;;;;;4198064;28;19913;-85
2022/07/15 04:50:45;;;;;;;;;;;13.30;65.90;;;;;;4204840;28;19943;-83
2022/07/15 04:50:51;;;;;;;;;;;13.40;65.60;;;;;;4191301;28;19905;-84
2022/07/15 04:53:12;;;;;;;;;;;13.40;65.50;;;;;;4187547;28;20020;-85
2022/07/15 04:55:33;;;;;;;;;;;13.50;65.50;;;;;;4197102;28;19966;-84
2022/07/15 04:57:53;;;;;;;;;;;13.50;65.20;;;;;;4189095;28;20022;-83
2022/07/15 05:00:14;;;;;;;;;;;13.60;64.90;;;;;;4179668;28;19996;-84
2022/07/15 05:02:35;;;;;;;;;;;13.60;64.60;;;;;;4191972;28;20374;-85
2022/07/15 05:04:56;;;;;;;;;;;13.70;64.70;;;;;;4176673;28;19913;-83
2022/07/15 05:07:17;;;;;;;;;;;13.70;64.40;;;;;;4169847;28;19909;-85
2022/07/15 05:09:38;;;;;;;;;;;13.70;64.30;;;;;;4171844;28;19955;-85
2022/07/15 05:11:59;;;;;;;;;;;13.70;64.20;;;;;;4190652;28;19915;-84
2022/07/15 05:14:20;;;;;;;;;;;13.80;64.20;;;;;;4187734;28;20286;-85
2022/07/15 05:16:41;;;;;;;;;;;13.80;64.10;;;;;;4189017;28;20225;-85
2022/07/15 05:19:01;;;;;;;;;;;13.80;64.00;;;;;;4188316;28;19954;-84
2022/07/15 05:21:22;;;;;;;;;;;13.90;63.70;;;;;;4179233;28;19939;-85
2022/07/15 05:23:43;;;;;;;;;;;13.90;63.30;;;;;;4193910;28;20285;-85
2022/07/15 05:26:04;;;;;;;;;;;13.90;63.10;;;;;;4196192;28;20016;-83
2022/07/15 05:28:25;;;;;;;;;;;13.90;62.30;;;;;;4189723;28;19916;-83
2022/07/15 05:30:46;;;;;;;;;;;14.00;62.80;;;;;;4192059;28;19917;-84
2022/07/15 05:33:06;;;;;;;;;;;14.10;62.40;;;;;;4194693;28;19904;-84
2022/07/15 05:35:27;;;;;;;;;;;14.10;62.40;;;;;;4172382;28;19935;-85
2022/07/15 05:37:48;;;;;;;;;;;14.10;62.60;;;;;;4191634;28;19914;-85
2022/07/15 05:40:10;;;;;;;;;;;14.20;61.70;;;;;;4194294;28;19908;-84
2022/07/15 05:42:31;;;;;;;;;;;14.20;61.50;;;;;;4189812;28;20354;-85
2022/07/15 05:44:52;;;;;;;;;;;14.20;61.30;;;;;;4192869;28;19987;-84
2022/07/15 05:47:12;;;;;;;;;;;14.30;61.40;;;;;;4194616;28;19956;-83
2022/07/15 05:49:33;;;;;;;;;;;14.30;61.20;;;;;;4178245;28;19952;-84
2022/07/15 05:51:55;;;;;;;;;;;14.40;60.80;;;;;;4191322;28;19919;-83
2022/07/15 05:54:15;;;;;;;;;;;14.40;60.80;;;;;;4190765;28;20430;-84
2022/07/15 05:56:36;;;;;;;;;;;14.50;60.70;;;;;;4180058;28;20317;-85
2022/07/15 05:58:57;;;;;;;;;;;14.50;60.30;;;;;;4184133;28;19905;-84
2022/07/15 06:01:18;;;;;;;;;;;14.50;60.20;;;;;;4190725;28;19912;-85
2022/07/15 06:03:39;;;;;;;;;;;14.50;60.00;;;;;;4186122;28;19920;-83
2022/07/15 06:06:00;;;;;;;;;;;14.60;60.10;;;;;;4187301;28;19904;-84
2022/07/15 06:08:20;;;;;;;;;;;14.60;59.90;;;;;;4193316;28;19915;-84
2022/07/15 06:10:42;;;;;;;;;;;14.70;59.60;;;;;;4192743;28;20374;-84
2022/07/15 06:13:03;;;;;;;;;;;14.70;59.60;;;;;;4177664;28;20672;-85
2022/07/15 06:15:24;;;;;;;;;;;14.70;58.80;;;;;;4177603;28;19905;-85
2022/07/15 06:17:45;;;;;;;;;;;14.80;59.10;;;;;;4193669;28;19955;-84
2022/07/15 06:20:06;;;;;;;;;;;14.80;59.00;;;;;;4197655;28;19912;-84
2022/07/15 06:22:27;;;;;;;;;;;14.80;59.10;;;;;;4184708;28;19944;-84
2022/07/15 06:24:48;;;;;;;;;;;14.90;58.80;;;;;;4172113;28;19996;-84
2022/07/15 06:27:09;;;;;;;;;;;14.90;58.90;;;;;;4185669;28;20047;-85
2022/07/15 06:29:30;;;;;;;;;;;15.00;58.20;;;;;;4192872;28;19915;-84
2022/07/15 06:31:51;;;;;;;;;;;15.00;58.20;;;;;;4193571;28;19951;-83
2022/07/15 06:34:12;;;;;;;;;;;15.10;58.30;;;;;;4188243;28;19927;-83
2022/07/15 06:36:33;;;;;;;;;;;15.10;57.80;;;;;;4190820;28;19905;-84
2022/07/15 06:38:54;;;;;;;;;;;15.20;57.40;;;;;;4194656;28;19905;-84
2022/07/15 06:41:14;;;;;;;;;;;15.30;57.10;;;;;;4175835;28;19909;-86
2022/07/15 06:43:35;;;;;;;;;;;15.30;57.50;;;;;;4189326;28;20365;-83
2022/07/15 06:45:56;;;;;;;;;;;15.30;56.40;;;;;;4193961;28;20369;-85
2022/07/15 06:48:17;;;;;;;;;;;15.40;56.00;;;;;;4186306;28;19915;-85
2022/07/15 06:50:38;;;;;;;;;;;15.40;55.40;;;;;;4187889;28;20326;-85
2022/07/15 06:52:59;;;;;;;;;;;15.40;55.50;;;;;;4179798;28;19976;-84
2022/07/15 06:55:19;;;;;;;;;;;15.40;55.70;;;;;;4170707;28;19912;-85
2022/07/15 06:57:40;;;;;;;;;;;15.50;55.90;;;;;;4193976;28;19954;-85
2022/07/15 07:00:02;;;;;;;;;;;15.50;55.50;;;;;;4187146;28;19908;-84
2022/07/15 07:02:23;;;;;;;;;;;15.40;55.50;;;;;;4182506;28;20361;-85
2022/07/15 07:04:44;;;;;;;;;;;15.40;55.60;;;;;;4177214;28;19909;-85
2022/07/15 07:07:05;;;;;;;;;;;15.40;55.40;;;;;;4192349;28;19912;-84
2022/07/15 07:09:26;;;;;;;;;;;15.40;55.10;;;;;;4187540;28;19969;-85
2022/07/15 07:11:47;;;;;;;;;;;15.40;54.80;;;;;;4175709;28;19920;-85
2022/07/15 07:14:08;;;;;;;;;;;15.30;54.80;;;;;;4187786;28;20008;-84
2022/07/15 07:16:29;;;;;;;;;;;15.40;55.20;;;;;;4184665;28;20377;-84
2022/07/15 07:18:50;;;;;;;;;;;15.40;55.40;;;;;;4193449;28;19960;-83
2022/07/15 07:21:11;;;;;;;;;;;15.40;55.70;;;;;;4187532;28;19920;-84
2022/07/15 07:23:34;;;;;;;;;;;15.40;55.60;;;;;;4190791;28;19908;-83
2022/07/15 07:25:55;;;;;;;;;;;15.40;55.50;;;;;;4172165;28;19916;-84
2022/07/15 07:28:15;;;;;;;;;;;15.40;55.40;;;;;;4193216;28;19908;-86
2022/07/15 07:30:36;;;;;;;;;;;15.50;55.10;;;;;;4193849;28;19908;-85
2022/07/15 07:32:57;;;;;;;;;;;15.50;55.30;;;;;;4171221;28;19909;-85
2022/07/15 07:35:18;;;;;;;;;;;15.60;55.40;;;;;;4188515;28;20416;-86
2022/07/15 07:37:40;;;;;;;;;;;15.60;55.50;;;;;;4178052;28;20361;-83
2022/07/15 07:40:01;;;;;;;;;;;15.60;55.40;;;;;;4185793;28;19908;-85
2022/07/15 07:42:21;;;;;;;;;;;15.60;55.30;;;;;;4186081;28;19919;-84
2022/07/15 07:44:42;;;;;;;;;;;15.60;55.90;;;;;;4189869;28;19999;-84
2022/07/15 07:47:03;;;;;;;;;;;15.60;54.80;;;;;;4187337;28;20563;-84
2022/07/15 07:49:24;;;;;;;;;;;15.60;55.00;;;;;;4182114;28;19909;-84
2022/07/15 07:51:45;;;;;;;;;;;15.60;55.20;;;;;;4185412;28;19988;-83
2022/07/15 07:54:06;;;;;;;;;;;15.50;55.50;;;;;;4179656;28;20333;-83
2022/07/15 07:56:28;;;;;;;;;;;15.50;55.80;;;;;;4193460;28;19909;-83
2022/07/15 07:58:49;;;;;;;;;;;15.50;56.20;;;;;;4172511;28;19931;-85
2022/07/15 08:01:09;;;;;;;;;;;15.40;56.30;;;;;;4187625;28;20393;-85
2022/07/15 08:03:30;;;;;;;;;;;15.40;57.10;;;;;;4180542;28;20369;-83
2022/07/15 08:05:53;;;;;;;;;;;15.30;56.40;;;;;;4179589;28;19904;-85
2022/07/15 08:08:19;;;;;;;;;;;15.30;56.40;;;;;;4176953;28;20362;-84
2022/07/15 08:10:41;;;;;;;;;;;15.30;56.30;;;;;;4189191;28;19919;-85
2022/07/15 08:13:01;;;;;;;;;;;15.30;56.20;;;;;;4177019;28;19919;-85
2022/07/15 08:15:22;;;;;;;;;;;15.30;56.40;;;;;;4196244;28;19965;-83
2022/07/15 08:17:43;;;;;;;;;;;15.30;56.50;;;;;;4185307;28;19909;-84
2022/07/15 08:20:05;;;;;;;;;;;15.30;56.60;;;;;;4173854;28;19913;-84
2022/07/15 08:22:26;;;;;;;;;;;15.30;56.30;;;;;;4187589;28;19916;-85
2022/07/15 08:24:49;;;;;;;;;;;15.30;56.40;;;;;;4179529;28;20007;-85
2022/07/15 08:27:10;;;;;;;;;;;15.20;56.60;;;;;;4180508;28;19908;-85
2022/07/15 08:29:31;;;;;;;;;;;15.20;56.10;;;;;;4183005;28;19996;-84
2022/07/15 08:31:51;;;;;;;;;;;15.10;56.00;;;;;;4180418;28;19909;-87
2022/07/15 08:34:12;;;;;;;;;;;15.20;56.20;;;;;;4189071;28;20290;-85
2022/07/15 08:36:33;;;;;;;;;;;15.20;56.40;;;;;;4181289;28;20000;-84
2022/07/15 08:38:54;;;;;;;;;;;15.20;56.40;;;;;;4190126;28;19951;-85
2022/07/15 08:41:15;;;;;;;;;;;15.20;56.40;;;;;;4173436;28;19912;-84
2022/07/15 08:43:36;;;;;;;;;;;15.20;56.60;;;;;;4176051;28;20389;-84
2022/07/15 08:45:57;;;;;;;;;;;15.20;56.50;;;;;;4187309;28;19917;-83
2022/07/15 08:48:19;;;;;;;;;;;15.20;56.50;;;;;;4194047;28;20385;-82
2022/07/15 08:50:41;;;;;;;;;;;15.20;56.40;;;;;;4189723;28;20390;-85
2022/07/15 08:53:02;;;;;;;;;;;15.20;56.60;;;;;;4196566;28;19908;-84
2022/07/15 08:55:23;;;;;;;;;;;15.20;56.40;;;;;;4191033;28;19916;-84
2022/07/15 08:57:49;;;;;;;;;;;15.20;56.40;;;;;;4196409;28;19999;-84
2022/07/15 09:00:11;;;;;;;;;;;15.20;56.60;;;;;;4188108;28;19908;-84
2022/07/15 09:02:32;;;;;;;;;;;15.20;56.80;;;;;;4208118;28;19935;-86
2022/07/15 09:05:12;;;;;;;;;;;15.20;57.00;;;;;;4191638;28;19905;-82
2022/07/15 09:07:49;;;;;;;;;;;15.30;57.30;;;;;;4180245;28;19909;-85
2022/07/15 09:10:10;;;;;;;;;;;15.30;57.30;;;;;;4189774;28;20536;-83
2022/07/15 09:12:39;;;;;;;;;;;15.40;57.40;;;;;;4193869;28;19955;-86
2022/07/15 09:15:00;;;;;;;;;;;15.40;57.20;;;;;;4188185;28;19912;-83
2022/07/15 09:17:22;;;;;;;;;;;15.40;57.20;;;;;;4184204;28;20378;-85
2022/07/15 09:20:02;;;;;;;;;;;15.50;57.40;;;;;;4178796;28;19919;-84
2022/07/15 09:22:24;;;;;;;;;;;15.50;57.40;;;;;;4189481;28;19909;-84
2022/07/15 09:24:45;;;;;;;;;;;15.50;56.90;;;;;;4196818;28;19912;-84
2022/07/15 09:27:26;;;;;;;;;;;15.60;56.50;;;;;;4190445;28;19912;-84
2022/07/15 09:36:01;;;;;;;;;;;15.60;56.20;;;;;;4188303;28;19912;-85
2022/07/15 09:37:56;;;;;;;;;;;15.70;56.40;;;;;;4182463;28;20050;-84
2022/07/15 09:40:17;;;;;;;;;;;15.70;56.60;;;;;;4177760;28;19909;-84
2022/07/15 09:43:03;;;;;;;;;;;15.70;56.10;;;;;;4178834;28;19912;-85
2022/07/15 09:45:24;;;;;;;;;;;15.80;56.30;;;;;;4190938;28;19912;-85
2022/07/15 09:47:45;;;;;;;;;;;15.80;55.90;;;;;;4183545;28;20389;-85
2022/07/15 09:50:06;;;;;;;;;;;15.90;55.80;;;;;;4194376;28;19913;-86
2022/07/15 09:52:44;;;;;;;;;;;15.90;55.90;;;;;;4182111;28;20405;-84
2022/07/15 09:55:05;;;;;;;;;;;15.90;56.00;;;;;;4196627;28;19917;-84
2022/07/15 09:57:26;;;;;;;;;;;15.90;56.00;;;;;;4191017;28;19988;-86
2022/07/15 09:59:48;;;;;;;;;;;15.90;55.90;;;;;;4176579;28;19909;-85
2022/07/15 10:02:10;;;;;;;;;;;16.00;56.00;;;;;;4183466;28;19909;-84
2022/07/15 10:04:31;;;;;;;;;;;16.00;55.70;;;;;;4181103;28;19913;-83
2022/07/15 10:06:53;;;;;;;;;;;16.10;55.50;;;;;;4189034;28;20342;-83
2022/07/15 10:09:14;;;;;;;;;;;16.10;55.10;;;;;;4188312;28;20363;-85
2022/07/15 10:11:40;;;;;;;;;;;16.20;54.20;;;;;;4191301;28;19919;-84
2022/07/15 10:14:19;;;;;;;;;;;16.20;53.70;;;;;;4188408;28;20255;-83
2022/07/15 10:17:07;;;;;;;;;;;16.30;53.40;;;;;;4184413;28;19948;-84
2022/07/15 10:19:40;;;;;;;;;;;16.30;52.70;;;;;;4183222;28;19911;-85
2022/07/15 10:22:30;;;;;;;;;;;16.40;51.90;;;;;;4176246;28;19963;-84
2022/07/15 10:24:50;;;;;;;;;;;16.40;52.00;;;;;;4187593;28;20362;-84
2022/07/15 10:27:30;;;;;;;;;;;16.40;52.30;;;;;;4187778;28;20041;-85
2022/07/15 10:29:51;;;;;;;;;;;16.50;52.30;;;;;;4189946;28;19912;-85
2022/07/15 10:32:12;;;;;;;;;;;16.50;52.80;;;;;;4195440;28;19986;-84
2022/07/15 10:34:33;;;;;;;;;;;16.50;53.40;;;;;;4171831;28;20371;-84
2022/07/15 10:36:57;;;;;;;;;;;16.60;53.70;;;;;;4179733;28;19964;-84
2022/07/15 10:39:19;;;;;;;;;;;16.60;53.40;;;;;;4192961;28;19955;-84
2022/07/15 10:41:58;;;;;;;;;;;16.70;53.30;;;;;;4178995;28;19919;-85
2022/07/15 10:44:19;;;;;;;;;;;16.70;53.10;;;;;;4186267;28;19904;-84
2022/07/15 10:46:40;;;;;;;;;;;16.80;53.10;;;;;;4189503;28;20362;-86
2022/07/15 10:49:01;;;;;;;;;;;16.80;52.60;;;;;;4174041;28;19932;-85
2022/07/15 10:51:34;;;;;;;;;;;16.90;52.00;;;;;;4180985;28;20382;-85
2022/07/15 10:53:56;;;;;;;;;;;17.00;52.50;;;;;;4171993;28;19952;-84
2022/07/15 10:56:31;;;;;;;;;;;17.00;51.80;;;;;;4170618;28;19909;-85
2022/07/15 10:59:10;;;;;;;;;;;17.10;51.50;;;;;;4182744;28;19971;-84
2022/07/15 11:01:31;;;;;;;;;;;17.10;51.50;;;;;;4171135;28;20106;-84
2022/07/15 11:04:11;;;;;;;;;;;17.10;51.30;;;;;;4190010;28;19944;-85
2022/07/15 11:06:32;;;;;;;;;;;17.10;50.80;;;;;;4191761;28;19913;-85
2022/07/15 11:08:55;;;;;;;;;;;17.10;50.80;;;;;;4183574;28;19936;-84
2022/07/15 11:11:18;;;;;;;;;;;17.10;51.10;;;;;;4174135;28;19964;-86
2022/07/15 11:13:46;;;;;;;;;;;17.00;51.30;;;;;;4193669;28;19947;-84
2022/07/15 11:16:12;;;;;;;;;;;17.00;51.40;;;;;;4193190;28;19920;-85
2022/07/15 11:18:45;;;;;;;;;;;16.90;51.70;;;;;;4190854;28;19948;-84
2022/07/15 11:21:06;;;;;;;;;;;16.90;52.20;;;;;;4179520;28;19962;-85
2022/07/15 11:23:31;;;;;;;;;;;16.90;52.40;;;;;;4180722;28;19996;-84
2022/07/15 11:25:51;;;;;;;;;;;16.80;51.90;;;;;;4172486;28;19954;-84
2022/07/15 11:28:14;;;;;;;;;;;16.80;51.70;;;;;;4193054;28;20377;-83
2022/07/15 11:30:42;;;;;;;;;;;16.80;52.00;;;;;;4188329;28;19915;-85
2022/07/15 11:33:04;;;;;;;;;;;16.80;51.40;;;;;;4171660;28;19913;-85
2022/07/15 11:35:26;;;;;;;;;;;16.90;51.50;;;;;;4187653;28;19939;-84
2022/07/15 11:37:46;;;;;;;;;;;16.90;51.20;;;;;;4191337;28;19916;-85
2022/07/15 11:40:08;;;;;;;;;;;17.00;50.80;;;;;;4169307;28;19913;-84
2022/07/15 11:45:11;;;;;;;;;;;17.10;50.40;;;;;;4188857;28;19944;-86
2022/07/15 11:47:32;;;;;;;;;;;17.10;50.70;;;;;;4176445;28;19980;-84
2022/07/15 11:49:57;;;;;;;;;;;17.10;50.80;;;;;;4177807;28;19954;-84
2022/07/15 11:52:23;;;;;;;;;;;17.10;51.30;;;;;;4172766;28;19913;-83
2022/07/15 11:54:44;;;;;;;;;;;17.10;51.70;;;;;;4189807;28;19931;-84
2022/07/15 11:57:06;;;;;;;;;;;17.10;52.90;;;;;;4192668;28;19963;-86
2022/07/15 11:59:27;;;;;;;;;;;17.20;52.10;;;;;;4189469;28;19928;-83
2022/07/15 12:01:58;;;;;;;;;;;17.30;52.20;;;;;;4187428;28;19912;-84
2022/07/15 12:04:26;;;;;;;;;;;17.30;52.20;;;;;;4193419;28;19913;-84
2022/07/15 12:06:50;;;;;;;;;;;17.40;51.70;;;;;;4175541;28;19918;-86
2022/07/15 12:09:11;;;;;;;;;;;17.40;50.60;;;;;;4187506;28;20453;-86
2022/07/15 12:11:32;;;;;;;;;;;17.50;51.40;;;;;;4188274;28;20356;-85
2022/07/15 12:13:55;;;;;;;;;;;17.60;51.20;;;;;;4175147;28;20390;-85
2022/07/15 12:16:20;;;;;;;;;;;17.60;50.80;;;;;;4185960;28;20021;-84
2022/07/15 12:18:41;;;;;;;;;;;17.60;50.60;;;;;;4189310;28;19936;-84
2022/07/15 12:21:02;;;;;;;;;;;17.60;50.00;;;;;;4176056;28;20319;-85
2022/07/15 12:23:26;;;;;;;;;;;17.70;50.60;;;;;;4192461;28;19970;-85
2022/07/15 12:25:47;;;;;;;;;;;17.80;50.70;;;;;;4181698;28;19916;-85
2022/07/15 12:28:07;;;;;;;;;;;17.80;50.00;;;;;;4178491;28;19951;-85
2022/07/15 12:30:38;;;;;;;;;;;17.90;50.30;;;;;;4192447;28;20137;-86
2022/07/15 12:33:18;;;;;;;;;;;17.90;49.80;;;;;;4180567;28;19999;-86
2022/07/15 12:35:39;;;;;;;;;;;17.90;49.70;;;;;;4178597;28;20007;-84
2022/07/15 12:38:00;;;;;;;;;;;17.90;49.30;;;;;;4198365;28;19904;-86
2022/07/15 12:40:22;;;;;;;;;;;17.80;49.00;;;;;;4196610;28;19916;-85
2022/07/15 12:42:48;;;;;;;;;;;17.70;48.70;;;;;;4178249;28;20454;-83
2022/07/15 12:45:11;;;;;;;;;;;17.70;49.10;;;;;;4178468;28;20005;-85
2022/07/15 12:47:31;;;;;;;;;;;17.70;49.30;;;;;;4173570;28;19932;-83
2022/07/15 12:49:53;;;;;;;;;;;17.70;49.40;;;;;;4186529;28;19904;-85
2022/07/15 12:52:15;;;;;;;;;;;17.70;49.40;;;;;;4192658;28;19995;-84
2022/07/15 12:54:36;;;;;;;;;;;17.70;49.60;;;;;;4189561;28;19916;-87
2022/07/15 12:56:57;;;;;;;;;;;17.70;49.40;;;;;;4188571;28;19962;-85
2022/07/15 12:59:18;;;;;;;;;;;17.80;49.70;;;;;;4176502;28;19909;-84
2022/07/15 13:01:42;;;;;;;;;;;17.80;49.40;;;;;;4171880;28;19998;-85
2022/07/15 13:04:03;;;;;;;;;;;17.90;49.80;;;;;;4191791;28;20003;-84
2022/07/15 13:06:24;;;;;;;;;;;17.90;49.50;;;;;;4185415;28;19908;-84
2022/07/15 13:08:45;;;;;;;;;;;18.00;48.90;;;;;;4193832;28;19999;-85
2022/07/15 13:11:07;;;;;;;;;;;18.10;49.50;;;;;;4193222;28;20289;-85
2022/07/15 13:13:29;;;;;;;;;;;18.20;49.40;;;;;;4173219;28;20370;-85
2022/07/15 13:15:51;;;;;;;;;;;18.30;49.20;;;;;;4173020;28;19908;-85
2022/07/15 13:18:13;;;;;;;;;;;18.30;49.00;;;;;;4199077;28;19916;-85
2022/07/15 13:20:34;;;;;;;;;;;18.40;48.40;;;;;;4199882;28;20051;-85
2022/07/15 13:22:55;;;;;;;;;;;18.50;48.00;;;;;;4180442;28;19920;-87
2022/07/15 13:25:16;;;;;;;;;;;18.50;47.10;;;;;;4174465;28;20321;-83
2022/07/15 13:27:37;;;;;;;;;;;18.50;47.10;;;;;;4194428;28;19912;-86
2022/07/15 13:29:59;;;;;;;;;;;18.60;47.20;;;;;;4180559;28;19924;-86
2022/07/15 13:32:20;;;;;;;;;;;18.60;46.70;;;;;;4189421;28;20390;-85
2022/07/15 13:34:40;;;;;;;;;;;18.70;46.90;;;;;;4192627;28;19919;-84
2022/07/15 13:37:01;;;;;;;;;;;18.70;47.00;;;;;;4191087;28;19909;-85
2022/07/15 13:39:22;;;;;;;;;;;18.70;46.90;;;;;;4192842;28;20575;-84
2022/07/15 13:41:43;;;;;;;;;;;18.70;47.10;;;;;;4191825;28;20038;-86
2022/07/15 13:44:04;;;;;;;;;;;18.80;47.40;;;;;;4188959;28;20369;-85
2022/07/15 13:46:25;;;;;;;;;;;18.80;47.50;;;;;;4189771;28;20419;-86
2022/07/15 13:48:46;;;;;;;;;;;18.90;47.80;;;;;;4185931;28;19943;-86
2022/07/15 13:51:25;;;;;;;;;;;18.90;48.10;;;;;;4198821;28;20278;-86
2022/07/15 13:53:45;;;;;;;;;;;19.00;48.30;;;;;;4175290;28;20016;-84
2022/07/15 13:56:06;;;;;;;;;;;19.00;48.20;;;;;;4188311;28;19912;-84
2022/07/15 13:58:30;;;;;;;;;;;19.10;48.30;;;;;;4185831;28;19909;-84
2022/07/15 14:00:51;;;;;;;;;;;19.00;47.90;;;;;;4187970;28;20006;-84